Moran, WY (83013)

4:01 PM MDT on August 24, 2016 (GMT -0600)
Dubois Muni, Dubois, WY | | Change Station

Elev 7297 ft 43.55 °N, 109.69 °W | Updated 6 minutes ago

Scattered Clouds
Scattered Clouds
61 °F
Feels Like 61 °F
N
20
Wind Variable Wind from ESE
Gusts 25 mph

Today
High -- | Low -- °F
--% Chance of Precip.
Yesterday
High -- | Low -- °F
Precip. -- in
Pressure 30.24 in
Visibility 10.0 miles
Clouds Scattered Clouds 11000 ft
Dew Point 28 °F
Humidity 29%
Rainfall 0.00 in
Snow Depth Not available.
6:36 AM 8:09 PM
Waning Gibbous, 53% visible
METAR KDUB 242155Z AUTO 12017G22KT 10SM SCT110 16/M02 A3024 RMK AO2
Pressure 30.24 in
Visibility 10.0 miles
Clouds Scattered Clouds 11000 ft
Dew Point 28 °F
Humidity 29%
Rainfall 0.00 in
Snow Depth Not available.
6:36 AM 8:09 PM
Waning Gibbous, 53% visible
METAR KDUB 242155Z AUTO 12017G22KT 10SM SCT110 16/M02 A3024 RMK AO2

10-Day Weather Forecast

Almanac

Astronomy

Aug. 24, 2016 Rise Set
Actual Time
Civil Twilight
Nautical Twilight
Astronomical Twilight
Moon
Length of Visible Light
Length of Day
Tomorrow will be .
, % of the Moon is Illuminated

Today's Extremes

State Highs State Lows

Community

WunderPhotos

Upload Photos

1,934,724 photos uploaded!

WunderBlog® & News

Nearby

Air Quality

  Air Quality AQ Index Pollutant
Not available.

Snow Depth

Station Depth Elevation

Earthquake Activity

City Distance Mag. Time & Date
Minimum magnitude displayed is 2.5.

Coastal Water Temperatures

Place Temperature

Stations

Nearby Weather Stations

Station Location Temp. Windchill Dew Point Humidity Wind Precip. Elev Updated Type
                   

Watches & Warnings

There are currently no watches in effect.